logo
Search for airport 
image banner adimage banner adimage banner ad
image banner ad

SVWV - Corral Viejo

Located in Zulia, Venezuela

ICAO - , IATA -

Data provided by Airmate  

General information

Coordinates: N9°40'6" W70°58'0"
Elevation is 25 feet MSL.
 
View others Airports in Zulia

Operational data

Special qualification required
Current time UTC:
Current local time:
Weather at : - ( 0 km )
METAR: UWWW 191314Z 30005MPS 270V330 9999 VCTS -SHRA SCT033CB 23/19 Q1009 R33/CLRD63 NOSIG RMK QFE746/0994
View NOTAMs / SUP AIP / TFR affecting this airport [VIEW]
Communications frequencies: [VIEW]

Runways:

RWY identifierQFULength (ft)Width (ft)SurfaceLDA (ft)
1000UNK
2800UNK

Airport contact information

Address: Zulia Venezuela

Satellite view of SVWV